Time;durP1;ratioP1;P1;durP2;ratioP2;P2;SDS_P1;SDS_P2;PMS_P1;PMS_P2;Temp;Humidity;BMP_temperature;BMP_pressure;BME280_temperature;BME280_humidity;BME280_pressure;Samples;Min_cycle;Max_cycle;Signal;HPM_P1;HPM_P2
2022/10/08 00:00:30;;;;;;;14.05;10.48;;;;;;;14.17;79.30;100475.73;2038830;86;21001;-79
2022/10/08 00:03:42;;;;;;;13.32;10.78;;;;;;;14.16;79.39;100472.73;2029401;86;21025;-80
2022/10/08 00:06:43;;;;;;;15.75;10.43;;;;;;;14.14;79.46;100467.59;2036352;86;21061;-80
2022/10/08 00:09:44;;;;;;;15.70;11.88;;;;;;;14.11;79.45;100459.95;2028899;86;21009;-79
2022/10/08 00:12:45;;;;;;;15.28;11.80;;;;;;;14.10;79.50;100452.94;2028603;86;21006;-79
2022/10/08 00:15:46;;;;;;;15.13;11.80;;;;;;;14.08;79.54;100448.31;2031453;86;21065;-80
2022/10/08 00:18:50;;;;;;;15.38;11.55;;;;;;;14.07;79.55;100443.45;2029652;86;20999;-79
2022/10/08 00:21:55;;;;;;;16.60;11.73;;;;;;;14.06;79.63;100443.65;2043262;85;21051;-79
2022/10/08 00:24:55;;;;;;;13.05;10.38;;;;;;;14.06;79.66;100436.98;2052728;85;21054;-80
2022/10/08 00:27:56;;;;;;;14.15;10.80;;;;;;;14.05;79.73;100440.64;2051361;85;21033;-80
2022/10/08 00:30:57;;;;;;;16.50;11.97;;;;;;;14.02;79.79;100433.85;2045184;85;21002;-80
2022/10/08 00:34:02;;;;;;;21.20;13.72;;;;;;;14.00;79.76;100427.86;2051182;85;21062;-79
2022/10/08 00:37:03;;;;;;;26.27;16.73;;;;;;;13.98;79.78;100430.38;2044090;85;21087;-80
2022/10/08 00:40:05;;;;;;;29.00;18.48;;;;;;;13.98;79.77;100427.72;2047233;85;21246;-79
2022/10/08 00:43:07;;;;;;;28.15;17.95;;;;;;;13.96;79.80;100424.39;2045045;85;21000;-81
2022/10/08 00:46:28;;;;;;;27.98;17.67;;;;;;;13.95;79.84;100422.23;2044461;85;21054;-80
2022/10/08 00:49:29;;;;;;;19.37;14.03;;;;;;;13.94;79.87;100421.92;2046440;85;21472;-77
2022/10/08 00:52:37;;;;;;;32.10;18.60;;;;;;;13.94;79.89;100414.40;2051308;85;21050;-80
2022/10/08 00:55:40;;;;;;;23.90;14.90;;;;;;;13.92;79.96;100414.59;2048844;85;21025;-80
2022/10/08 00:58:43;;;;;;;20.95;13.10;;;;;;;13.93;80.03;100404.75;2052859;85;21584;-81
2022/10/08 01:01:44;;;;;;;16.67;11.93;;;;;;;13.89;80.00;100402.45;2043227;85;21064;-80
2022/10/08 01:04:47;;;;;;;13.60;11.43;;;;;;;13.87;80.07;100401.80;2050921;85;20997;-79
2022/10/08 01:08:15;;;;;;;12.93;10.70;;;;;;;13.86;80.16;100397.98;2047546;85;21041;-79
2022/10/08 01:11:52;;;;;;;13.13;10.58;;;;;;;13.82;80.26;100390.83;2046345;85;20993;-78
2022/10/08 01:15:22;;;;;;;13.00;10.53;;;;;;;13.77;80.44;100388.38;2048116;85;21041;-80
2022/10/08 01:18:40;;;;;;;14.20;10.68;;;;;;;13.75;80.58;100385.91;2049481;85;21030;-81
2022/10/08 01:21:59;;;;;;;17.23;10.90;;;;;;;13.73;80.63;100385.77;2006123;87;21081;-80
2022/10/08 01:25:31;;;;;;;13.78;10.70;;;;;;;13.70;80.76;100378.13;2003970;87;20990;-78
2022/10/08 01:28:38;;;;;;;21.27;11.78;;;;;;;13.68;80.81;100378.30;1992170;87;21026;-79
2022/10/08 01:31:46;;;;;;;18.82;11.05;;;;;;;13.63;80.93;100377.53;1997209;87;21839;-79
2022/10/08 01:34:58;;;;;;;12.45;9.88;;;;;;;13.60;80.99;100373.03;1996360;88;21081;-80
2022/10/08 01:38:05;;;;;;;13.30;10.75;;;;;;;13.58;81.11;100373.74;2033718;86;21046;-79
2022/10/08 01:41:10;;;;;;;13.00;10.60;;;;;;;13.56;81.23;100371.75;2035425;86;21101;-80
2022/10/08 01:44:17;;;;;;;15.63;10.50;;;;;;;13.54;81.23;100373.25;2037085;86;22312;-79
2022/10/08 01:47:26;;;;;;;15.35;10.60;;;;;;;13.52;81.31;100371.80;2026987;86;21031;-81
2022/10/08 01:50:32;;;;;;;14.63;10.53;;;;;;;13.52;81.34;100373.14;2029617;86;21000;-79
2022/10/08 01:53:38;;;;;;;29.10;14.98;;;;;;;13.51;81.37;100366.13;2030882;86;21466;-80
2022/10/08 01:56:42;;;;;;;14.65;10.70;;;;;;;13.52;81.38;100360.62;2035615;86;21363;-80
2022/10/08 01:59:52;;;;;;;15.58;12.05;;;;;;;13.54;81.48;100363.09;2034534;86;21009;-80
2022/10/08 02:02:54;;;;;;;15.07;12.00;;;;;;;13.53;81.47;100352.95;2033183;86;21010;-77
2022/10/08 02:05:58;;;;;;;17.27;10.98;;;;;;;13.52;81.50;100351.81;2040283;86;21444;-79
2022/10/08 02:09:00;;;;;;;17.57;10.93;;;;;;;13.51;81.55;100351.47;2034318;86;21101;-80
2022/10/08 02:12:01;;;;;;;14.70;11.30;;;;;;;13.47;81.66;100347.01;2025342;85;20978;-80
2022/10/08 02:15:06;;;;;;;13.53;10.65;;;;;;;13.43;81.74;100349.21;2032432;86;21096;-79
2022/10/08 02:18:15;;;;;;;16.10;11.38;;;;;;;13.38;81.84;100345.42;2032324;86;21082;-79
2022/10/08 02:21:24;;;;;;;14.53;11.75;;;;;;;13.31;82.10;100343.14;2026465;86;21076;-79
2022/10/08 02:24:39;;;;;;;14.53;11.12;;;;;;;13.24;82.32;100333.68;2006048;87;21042;-79
2022/10/08 02:27:46;;;;;;;22.02;12.30;;;;;;;13.19;82.43;100337.38;2009188;87;21052;-78
2022/10/08 02:31:01;;;;;;;17.85;12.68;;;;;;;13.16;82.51;100330.56;2000672;87;21064;-78
2022/10/08 02:34:31;;;;;;;12.30;11.03;;;;;;;13.14;82.55;100331.75;1974779;88;21113;-80
2022/10/08 02:37:38;;;;;;;12.63;10.90;;;;;;;13.14;82.56;100334.41;1951571;90;21006;-78
2022/10/08 02:40:43;;;;;;;13.22;11.40;;;;;;;13.12;82.50;100330.61;1958839;90;21089;-79
2022/10/08 02:43:47;;;;;;;14.63;11.03;;;;;;;13.13;82.47;100332.26;1957019;90;21009;-78
2022/10/08 02:46:51;;;;;;;16.65;11.60;;;;;;;13.09;82.32;100333.63;1957441;90;21112;-79
2022/10/08 02:49:56;;;;;;;15.78;11.95;;;;;;;13.08;82.29;100335.13;1959143;89;21072;-79
2022/10/08 02:52:59;;;;;;;14.70;11.45;;;;;;;13.07;82.40;100335.64;1956582;90;21062;-80
2022/10/08 02:56:14;;;;;;;16.20;11.78;;;;;;;13.06;82.45;100341.13;1955217;90;21564;-79
2022/10/08 02:59:18;;;;;;;19.67;11.83;;;;;;;13.05;82.43;100348.30;1954529;90;21509;-79
2022/10/08 03:02:36;;;;;;;13.58;11.78;;;;;;;13.05;82.51;100346.14;1951013;90;21579;-79
2022/10/08 03:05:40;;;;;;;14.50;12.40;;;;;;;13.05;82.48;100342.97;1953911;90;21033;-78
2022/10/08 03:08:47;;;;;;;15.10;11.40;;;;;;;13.07;82.59;100338.81;1955175;90;21056;-79
2022/10/08 03:11:50;;;;;;;14.47;12.23;;;;;;;13.09;82.63;100336.77;1959858;90;21031;-79
2022/10/08 03:14:51;;;;;;;14.23;12.58;;;;;;;13.09;82.66;100335.45;1960097;90;21035;-80
2022/10/08 03:17:53;;;;;;;15.15;11.85;;;;;;;13.09;82.64;100340.77;1955841;90;21006;-77
2022/10/08 03:20:54;;;;;;;16.30;12.37;;;;;;;13.09;82.66;100343.44;1959297;90;21041;-79
2022/10/08 03:23:55;;;;;;;16.90;13.65;;;;;;;13.09;82.65;100341.63;1991298;88;20994;-78
2022/10/08 03:26:56;;;;;;;18.10;13.83;;;;;;;13.08;82.76;100343.94;1990621;88;21142;-78
2022/10/08 03:29:57;;;;;;;16.57;12.47;;;;;;;13.09;82.75;100346.09;1988569;88;21010;-80
2022/10/08 03:32:58;;;;;;;22.05;12.75;;;;;;;13.07;82.76;100348.14;2001545;87;21032;-80
2022/10/08 03:35:59;;;;;;;25.05;16.90;;;;;;;13.04;82.84;100341.83;2007826;87;21004;-80
2022/10/08 03:39:00;;;;;;;18.62;14.63;;;;;;;13.03;82.93;100348.97;1977829;88;21041;-79
2022/10/08 03:42:01;;;;;;;17.75;12.98;;;;;;;13.03;83.01;100345.48;2008298;87;21073;-80
2022/10/08 03:45:03;;;;;;;25.40;17.42;;;;;;;13.03;83.02;100347.64;2017353;87;21030;-80
2022/10/08 03:48:04;;;;;;;17.82;12.93;;;;;;;13.04;83.06;100349.31;2000160;88;21113;-79
2022/10/08 03:51:10;;;;;;;26.02;14.47;;;;;;;13.06;83.07;100343.80;1996052;88;21079;-79
2022/10/08 03:54:11;;;;;;;28.12;17.98;;;;;;;13.06;83.14;100339.80;1997599;88;21081;-78
2022/10/08 03:57:12;;;;;;;30.05;17.00;;;;;;;13.06;83.18;100326.48;2002925;88;21014;-77
2022/10/08 04:00:13;;;;;;;15.18;13.00;;;;;;;13.05;83.21;100323.50;1999486;88;21073;-79
2022/10/08 04:03:14;;;;;;;16.80;13.03;;;;;;;13.04;83.30;100323.19;1997314;88;21086;-77
2022/10/08 04:06:16;;;;;;;18.52;13.68;;;;;;;13.01;83.39;100319.86;2003431;88;21030;-78
2022/10/08 04:09:17;;;;;;;26.45;17.67;;;;;;;13.01;83.51;100318.53;1996799;88;21022;-79
2022/10/08 04:12:18;;;;;;;21.27;14.47;;;;;;;13.01;83.52;100323.86;2002079;88;21010;-79
2022/10/08 04:15:19;;;;;;;19.92;15.23;;;;;;;13.03;83.38;100325.50;2000953;88;21556;-80
2022/10/08 04:18:20;;;;;;;23.18;15.70;;;;;;;13.05;83.59;100325.66;1999405;88;21092;-79
2022/10/08 04:21:21;;;;;;;21.30;14.33;;;;;;;13.06;83.57;100330.47;2050440;85;21029;-79
2022/10/08 04:24:22;;;;;;;23.30;16.23;;;;;;;13.06;83.64;100326.48;2030919;86;21088;-80
2022/10/08 04:27:23;;;;;;;21.42;15.65;;;;;;;13.04;83.66;100319.19;2031566;86;21513;-77
2022/10/08 04:30:24;;;;;;;19.73;14.80;;;;;;;13.03;83.69;100322.33;2034622;86;21037;-78
2022/10/08 04:33:27;;;;;;;19.37;13.15;;;;;;;13.03;83.76;100317.52;2027184;86;21514;-79
2022/10/08 04:36:28;;;;;;;26.07;17.40;;;;;;;13.04;83.83;100316.53;2034343;86;21014;-79
2022/10/08 04:39:29;;;;;;;15.15;12.88;;;;;;;13.02;83.85;100310.03;2035881;86;21058;-78
2022/10/08 04:42:30;;;;;;;18.48;12.45;;;;;;;13.00;83.87;100315.52;2028661;86;21584;-77
2022/10/08 04:45:31;;;;;;;13.88;12.47;;;;;;;12.99;83.89;100312.55;2036602;86;21596;-77
2022/10/08 04:48:33;;;;;;;19.62;14.80;;;;;;;13.00;83.87;100312.03;2032718;86;21551;-78
2022/10/08 04:51:34;;;;;;;18.50;14.20;;;;;;;13.02;83.90;100322.02;2042301;86;21665;-76
2022/10/08 04:54:35;;;;;;;23.10;14.23;;;;;;;13.04;83.94;100313.86;2031401;86;21053;-76
2022/10/08 04:57:36;;;;;;;26.80;18.27;;;;;;;13.05;83.95;100316.33;2034910;86;21025;-77
2022/10/08 05:00:37;;;;;;;27.30;18.02;;;;;;;13.07;84.00;100315.66;2034067;86;21091;-79
2022/10/08 05:03:43;;;;;;;26.50;17.30;;;;;;;13.09;83.98;100314.98;2034248;85;21049;-76
2022/10/08 05:06:44;;;;;;;17.50;13.32;;;;;;;13.10;83.99;100319.30;2033273;86;21034;-79
2022/10/08 05:09:45;;;;;;;17.00;12.93;;;;;;;13.13;83.97;100328.27;2038756;86;21041;-78
2022/10/08 05:12:46;;;;;;;13.45;12.05;;;;;;;13.14;83.99;100326.42;2038978;86;21473;-77
2022/10/08 05:15:47;;;;;;;17.45;12.82;;;;;;;13.16;84.00;100321.75;2043118;86;21801;-80
2022/10/08 05:18:50;;;;;;;14.58;11.90;;;;;;;13.15;83.98;100326.26;2035316;86;20999;-80
2022/10/08 05:21:51;;;;;;;16.37;13.40;;;;;;;13.12;83.93;100319.10;2033703;85;21082;-79
2022/10/08 05:24:52;;;;;;;16.20;13.58;;;;;;;13.10;84.02;100323.80;2037673;85;21122;-78
2022/10/08 05:27:53;;;;;;;15.25;12.03;;;;;;;13.11;84.08;100324.94;2035067;85;21145;-78
2022/10/08 05:31:01;;;;;;;15.98;12.35;;;;;;;13.12;84.13;100324.43;2039710;85;21015;-78
2022/10/08 05:34:02;;;;;;;19.70;12.78;;;;;;;13.13;84.18;100328.27;2032423;85;21015;-79
2022/10/08 05:37:04;;;;;;;18.17;12.05;;;;;;;13.11;84.21;100326.78;2039843;85;21148;-80
2022/10/08 05:40:06;;;;;;;13.98;12.55;;;;;;;13.08;84.29;100321.30;2035729;85;21058;-78
2022/10/08 05:43:07;;;;;;;17.77;13.03;;;;;;;13.04;84.34;100329.84;2037380;85;21655;-78
2022/10/08 05:46:09;;;;;;;14.07;12.68;;;;;;;12.99;84.41;100333.85;2036241;85;21493;-79
2022/10/08 05:49:18;;;;;;;14.28;12.78;;;;;;;12.98;84.58;100334.87;2034045;85;21013;-79
2022/10/08 05:52:19;;;;;;;16.90;12.93;;;;;;;12.98;84.62;100340.70;2040212;85;21092;-78
2022/10/08 05:55:20;;;;;;;15.65;12.75;;;;;;;12.98;84.78;100340.20;2040959;85;21452;-80
2022/10/08 05:58:21;;;;;;;13.65;12.33;;;;;;;13.03;84.89;100337.49;2041366;85;21001;-81
2022/10/08 06:01:26;;;;;;;13.85;12.45;;;;;;;13.07;84.93;100345.47;2042847;85;21039;-78
2022/10/08 06:04:27;;;;;;;15.23;12.63;;;;;;;13.13;85.01;100338.09;2044847;85;21090;-78
2022/10/08 06:07:28;;;;;;;16.97;12.53;;;;;;;13.19;85.00;100342.70;2036781;85;21028;-82
2022/10/08 06:10:30;;;;;;;13.55;12.23;;;;;;;13.24;85.05;100349.16;2044873;85;20995;-82
2022/10/08 06:13:32;;;;;;;13.88;11.33;;;;;;;13.48;85.52;100351.83;2041623;85;21010;-79
2022/10/08 06:16:34;;;;;;;12.45;11.15;;;;;;;13.73;85.48;100345.77;2043158;85;21025;-79
2022/10/08 06:19:36;;;;;;;12.78;11.48;;;;;;;14.02;85.62;100339.63;2044567;85;21032;-80
2022/10/08 06:22:37;;;;;;;13.15;11.85;;;;;;;14.23;85.19;100341.05;2031686;85;21526;-80
2022/10/08 06:25:38;;;;;;;14.47;11.10;;;;;;;14.38;84.93;100344.22;2045054;85;21053;-80
2022/10/08 06:28:39;;;;;;;13.25;11.73;;;;;;;14.47;84.64;100341.75;2046927;85;21120;-80
2022/10/08 06:31:41;;;;;;;12.80;10.80;;;;;;;14.63;84.68;100342.91;2047568;85;21096;-81
2022/10/08 06:34:42;;;;;;;13.48;11.95;;;;;;;15.00;84.72;100345.06;2042166;85;21465;-80
2022/10/08 06:37:48;;;;;;;13.60;11.85;;;;;;;15.42;84.31;100340.20;2045912;85;21080;-80
2022/10/08 06:40:50;;;;;;;13.25;10.60;;;;;;;15.77;83.86;100347.49;2047468;85;20994;-81
2022/10/08 06:43:51;;;;;;;17.98;12.23;;;;;;;16.21;83.26;100345.00;2045877;85;21012;-79
2022/10/08 06:46:52;;;;;;;13.28;11.45;;;;;;;16.58;82.15;100340.55;2050314;85;21005;-81
2022/10/08 06:49:53;;;;;;;12.23;10.88;;;;;;;16.83;81.01;100340.53;2044181;85;21002;-80
2022/10/08 06:52:54;;;;;;;12.37;11.08;;;;;;;17.09;80.76;100343.28;2043390;85;21457;-78
2022/10/08 06:56:03;;;;;;;12.25;10.60;;;;;;;17.33;79.43;100341.03;2050142;85;21066;-81
2022/10/08 06:59:05;;;;;;;13.90;10.95;;;;;;;17.51;79.92;100349.80;2047384;85;21027;-79
2022/10/08 07:02:09;;;;;;;15.83;10.20;;;;;;;17.73;79.25;100341.02;2050392;85;21013;-79
2022/10/08 07:05:10;;;;;;;15.83;10.82;;;;;;;18.08;78.27;100334.91;2048972;85;20988;-81
2022/10/08 07:08:13;;;;;;;15.03;10.58;;;;;;;18.33;77.50;100345.78;2046844;85;21065;-80
2022/10/08 07:11:17;;;;;;;26.82;11.35;;;;;;;18.50;76.33;100347.45;2048866;85;21539;-82
2022/10/08 07:14:18;;;;;;;15.30;10.35;;;;;;;18.67;75.52;100339.23;2050374;85;21053;-81
2022/10/08 07:17:19;;;;;;;17.35;11.60;;;;;;;18.83;74.93;100336.57;2046318;85;21480;-81
2022/10/08 07:20:20;;;;;;;18.17;11.15;;;;;;;19.10;74.66;100333.20;2049994;85;21034;-80
2022/10/08 07:23:21;;;;;;;13.22;10.60;;;;;;;19.31;73.49;100333.88;2045446;85;21528;-80
2022/10/08 07:26:26;;;;;;;12.73;10.35;;;;;;;19.33;72.53;100338.53;2027145;86;21037;-79
2022/10/08 07:29:27;;;;;;;11.80;10.43;;;;;;;19.39;72.37;100338.99;2024835;86;21560;-80
2022/10/08 07:32:28;;;;;;;16.17;10.72;;;;;;;19.48;70.25;100332.28;2032376;86;21029;-81
2022/10/08 07:35:29;;;;;;;14.07;10.58;;;;;;;19.58;71.06;100328.58;2030747;86;21047;-80
2022/10/08 07:38:30;;;;;;;13.03;10.40;;;;;;;19.61;69.76;100327.32;2031970;86;21023;-81
2022/10/08 07:41:31;;;;;;;16.52;10.68;;;;;;;19.66;69.74;100326.98;2037336;86;21064;-80
2022/10/08 07:44:33;;;;;;;13.78;9.98;;;;;;;19.71;69.10;100326.34;2033603;86;21534;-80
2022/10/08 07:47:34;;;;;;;18.10;11.30;;;;;;;19.74;68.37;100324.55;2033168;85;21032;-80
2022/10/08 07:50:35;;;;;;;16.82;10.18;;;;;;;19.75;68.54;100326.70;2036398;86;20994;-81
2022/10/08 07:53:37;;;;;;;12.18;10.08;;;;;;;19.88;68.09;100329.28;2028662;86;21041;-81
2022/10/08 07:56:38;;;;;;;14.85;10.75;;;;;;;19.97;67.21;100331.97;2026653;86;21036;-82
2022/10/08 07:59:39;;;;;;;15.50;10.65;;;;;;;20.02;66.74;100329.94;2032088;86;21078;-81
2022/10/08 08:02:40;;;;;;;14.20;10.05;;;;;;;20.20;66.60;100330.48;2033626;86;21067;-82
2022/10/08 08:05:41;;;;;;;11.38;9.75;;;;;;;20.34;66.24;100326.58;2033846;86;21084;-81
2022/10/08 08:08:44;;;;;;;17.02;10.82;;;;;;;20.27;64.48;100328.52;2033179;86;21561;-81
2022/10/08 08:11:48;;;;;;;13.85;9.98;;;;;;;20.04;65.35;100330.02;2033961;86;21044;-81
2022/10/08 08:14:49;;;;;;;15.38;10.43;;;;;;;19.96;65.45;100333.53;2036203;86;21867;-80
2022/10/08 08:17:50;;;;;;;11.65;10.32;;;;;;;19.89;65.20;100329.57;2026295;86;21034;-81
2022/10/08 08:21:05;;;;;;;13.05;10.85;;;;;;;19.78;65.72;100328.95;2035309;86;21477;-81
2022/10/08 08:24:12;;;;;;;14.45;10.50;;;;;;;19.79;65.82;100337.33;2040649;85;21087;-81
2022/10/08 08:27:13;;;;;;;16.87;10.35;;;;;;;20.01;65.94;100337.73;2042003;85;21572;-84
2022/10/08 08:30:14;;;;;;;12.15;9.63;;;;;;;20.24;64.94;100325.75;2038228;85;21017;-81
2022/10/08 08:33:15;;;;;;;14.68;10.08;;;;;;;20.48;65.04;100321.86;2037784;85;21089;-79
2022/10/08 08:36:19;;;;;;;12.37;9.20;;;;;;;20.67;64.48;100316.77;2039595;85;21030;-80
2022/10/08 08:39:26;;;;;;;12.93;9.58;;;;;;;20.91;63.42;100316.30;2034782;85;21504;-80
2022/10/08 08:42:51;;;;;;;11.88;9.35;;;;;;;20.73;63.20;100326.62;2043895;85;21042;-80
2022/10/08 08:45:52;;;;;;;15.13;9.53;;;;;;;20.50;63.10;100327.84;2042334;85;21061;-81
2022/10/08 08:48:58;;;;;;;16.60;9.33;;;;;;;20.64;62.89;100321.27;2042479;85;21015;-80
2022/10/08 08:52:04;;;;;;;16.40;10.65;;;;;;;20.61;62.68;100324.42;1998551;87;21096;-80
2022/10/08 08:55:16;;;;;;;15.85;9.05;;;;;;;20.48;62.10;100334.80;1984402;87;21079;-80
2022/10/08 08:58:40;;;;;;;17.48;9.85;;;;;;;20.73;62.72;100323.93;1998247;87;21506;-80
2022/10/08 09:01:47;;;;;;;14.45;9.45;;;;;;;21.13;62.26;100321.18;1997878;87;21047;-80
2022/10/08 09:04:55;;;;;;;10.50;8.65;;;;;;;21.45;61.73;100323.88;1997145;87;21646;-81
2022/10/08 09:08:08;;;;;;;16.57;9.18;;;;;;;21.58;60.45;100322.03;1999685;89;21015;-83
2022/10/08 09:11:20;;;;;;;15.83;8.28;;;;;;;21.53;60.03;100321.38;1984855;87;21582;-81
2022/10/08 09:14:34;;;;;;;20.57;8.10;;;;;;;21.58;60.20;100319.33;2004607;87;21070;-83
2022/10/08 09:17:43;;;;;;;16.45;8.50;;;;;;;21.81;60.39;100317.97;2001766;87;21066;-81
2022/10/08 09:20:43;;;;;;;16.45;8.98;;;;;;;21.83;59.04;100322.61;2001476;87;21022;-82
2022/10/08 09:23:45;;;;;;;12.88;8.15;;;;;;;21.53;58.73;100325.95;2000856;87;22293;-82
2022/10/08 09:26:49;;;;;;;14.90;8.45;;;;;;;21.14;58.53;100321.46;2006491;87;21016;-81
2022/10/08 09:29:51;;;;;;;14.05;8.63;;;;;;;20.98;59.54;100319.73;2005725;87;21047;-79
2022/10/08 09:32:54;;;;;;;17.73;9.20;;;;;;;21.21;59.67;100330.30;2014779;87;20992;-80
2022/10/08 09:35:55;;;;;;;14.05;8.88;;;;;;;21.32;58.86;100331.38;2010523;87;21027;-82
2022/10/08 09:39:03;;;;;;;17.10;9.40;;;;;;;21.09;59.03;100330.77;2010310;87;21557;-80
2022/10/08 09:42:16;;;;;;;13.60;9.13;;;;;;;20.85;59.02;100329.36;2009531;87;21057;-79
2022/10/08 09:45:46;;;;;;;13.25;9.35;;;;;;;20.75;59.76;100334.47;2005617;87;21070;-80
2022/10/08 09:48:47;;;;;;;18.45;9.90;;;;;;;20.64;59.24;100336.59;2009251;87;21071;-79
2022/10/08 09:51:49;;;;;;;13.32;8.58;;;;;;;20.31;60.03;100339.16;2009173;87;21522;-79
2022/10/08 09:55:02;;;;;;;14.00;9.08;;;;;;;20.28;60.49;100338.27;2009271;87;21090;-80
2022/10/08 09:58:04;;;;;;;16.45;9.58;;;;;;;20.13;60.38;100337.27;2005335;87;21571;-78
2022/10/08 10:01:14;;;;;;;17.23;8.55;;;;;;;19.91;60.72;100337.73;2005732;87;21609;-79
2022/10/08 10:04:33;;;;;;;15.10;9.15;;;;;;;19.69;61.17;100341.35;2006246;87;21025;-79
2022/10/08 10:07:41;;;;;;;17.57;9.98;;;;;;;19.60;61.30;100340.48;2007871;87;21560;-79
2022/10/08 10:10:44;;;;;;;13.13;9.23;;;;;;;19.66;61.88;100348.52;2008519;87;21637;-80
2022/10/08 10:13:49;;;;;;;27.95;10.60;;;;;;;19.70;61.79;100348.38;2008379;87;21071;-79
2022/10/08 10:17:01;;;;;;;20.62;10.78;;;;;;;19.69;61.57;100342.70;2006639;87;21014;-79
2022/10/08 10:20:29;;;;;;;14.30;9.98;;;;;;;19.76;61.62;100347.19;2007882;87;21553;-80
2022/10/08 10:23:45;;;;;;;19.45;10.03;;;;;;;19.78;61.31;100343.23;2005773;87;21074;-81
2022/10/08 10:27:37;;;;;;;18.50;9.83;;;;;;;20.00;61.60;100344.17;2001687;88;21620;-80
2022/10/08 10:30:53;;;;;;;18.57;9.23;;;;;;;20.14;60.94;100339.76;2001134;87;21605;-81
2022/10/08 10:34:03;;;;;;;13.10;9.38;;;;;;;19.82;60.99;100341.77;2001853;87;21066;-82
2022/10/08 10:37:12;;;;;;;17.77;11.20;;;;;;;19.63;61.11;100335.48;2000659;87;21031;-82
2022/10/08 10:40:28;;;;;;;16.10;11.38;;;;;;;19.39;61.25;100324.19;2032495;86;21051;-81
2022/10/08 10:43:52;;;;;;;19.40;11.22;;;;;;;19.22;61.80;100324.73;2030136;85;20993;-79
2022/10/08 10:46:57;;;;;;;15.40;11.05;;;;;;;19.16;61.96;100317.53;2031983;86;21022;-81
2022/10/08 10:50:00;;;;;;;15.98;10.70;;;;;;;19.20;62.48;100317.42;2033563;86;21023;-81
2022/10/08 10:53:36;;;;;;;11.97;9.38;;;;;;;19.28;62.48;100320.34;2027548;86;21101;-80
2022/10/08 10:56:43;;;;;;;12.95;9.65;;;;;;;19.29;62.23;100319.81;2027953;86;21582;-82
2022/10/08 11:00:17;;;;;;;22.85;11.88;;;;;;;19.34;62.35;100318.64;2034980;85;21011;-80
2022/10/08 11:03:57;;;;;;;17.15;11.05;;;;;;;19.38;62.00;100314.48;2028030;86;21549;-78
2022/10/08 11:07:04;;;;;;;18.90;10.20;;;;;;;19.43;61.95;100311.97;2027814;86;21571;-81
2022/10/08 11:10:45;;;;;;;16.37;9.80;;;;;;;19.38;61.60;100307.76;2029920;86;21555;-80
2022/10/08 11:13:57;;;;;;;19.87;10.08;;;;;;;19.40;61.94;100305.65;2033198;86;20990;-80
2022/10/08 11:17:21;;;;;;;17.75;10.13;;;;;;;19.53;62.33;100294.78;2027473;86;21060;-82
2022/10/08 11:21:09;;;;;;;18.50;10.00;;;;;;;19.64;61.88;100298.09;2027990;86;21607;-83
2022/10/08 11:24:55;;;;;;;18.82;10.32;;;;;;;19.64;62.03;100302.66;2035980;86;21051;-79
2022/10/08 11:28:40;;;;;;;16.30;10.40;;;;;;;19.67;61.97;100294.16;2033771;86;21017;-81
2022/10/08 11:31:45;;;;;;;18.35;11.60;;;;;;;19.56;62.03;100299.71;2037241;86;21037;-81
2022/10/08 11:35:03;;;;;;;16.67;10.65;;;;;;;19.54;62.31;100288.37;2039864;86;21028;-82
2022/10/08 11:38:28;;;;;;;16.15;10.68;;;;;;;19.51;62.52;100288.78;2045730;86;20975;-83
2022/10/08 11:41:36;;;;;;;11.63;10.10;;;;;;;19.47;62.61;100279.52;2030617;86;21037;-81
2022/10/08 11:44:37;;;;;;;15.10;10.43;;;;;;;19.44;62.78;100282.66;2031016;86;21053;-83
2022/10/08 11:47:51;;;;;;;14.23;9.43;;;;;;;19.44;62.86;100282.66;2037688;86;21538;-85
2022/10/08 11:50:52;;;;;;;15.10;9.70;;;;;;;19.46;62.77;100288.65;2037613;86;21595;-85
2022/10/08 11:54:30;;;;;;;18.37;11.00;;;;;;;19.51;62.75;100282.58;2038401;86;21072;-84
2022/10/08 11:57:32;;;;;;;20.25;10.15;;;;;;;19.54;62.81;100287.02;2036833;86;21478;-87
2022/10/08 12:00:44;;;;;;;19.77;10.13;;;;;;;19.48;62.77;100283.34;2028393;86;21046;-84
2022/10/08 12:04:05;;;;;;;16.05;9.93;;;;;;;19.39;62.41;100285.18;2033454;85;21002;-83
2022/10/08 12:07:32;;;;;;;15.98;10.30;;;;;;;19.30;62.55;100287.33;2035940;85;21057;-80
2022/10/08 12:10:38;;;;;;;21.42;10.30;;;;;;;19.25;62.72;100278.56;2032623;86;21069;-83
2022/10/08 12:13:39;;;;;;;13.60;10.72;;;;;;;19.26;62.88;100273.50;2041051;86;21073;-82
2022/10/08 12:16:58;;;;;;;18.90;11.03;;;;;;;19.23;62.90;100273.09;2035135;85;21025;-85
2022/10/08 12:20:04;;;;;;;19.40;11.78;;;;;;;19.15;62.93;100278.78;2032176;86;21025;-79
2022/10/08 12:23:10;;;;;;;23.85;11.93;;;;;;;19.09;63.26;100275.59;2025375;86;21576;-83
2022/10/08 12:26:15;;;;;;;20.48;11.95;;;;;;;19.07;63.40;100279.86;2025241;85;21540;-78
2022/10/08 12:29:30;;;;;;;15.15;11.38;;;;;;;19.01;63.61;100283.43;2036296;86;21022;-82
2022/10/08 12:32:42;;;;;;;20.08;12.10;;;;;;;18.98;63.75;100283.86;2028180;86;21110;-81
2022/10/08 12:36:10;;;;;;;18.10;12.63;;;;;;;18.88;63.69;100275.45;2031102;86;21037;-82
2022/10/08 12:39:35;;;;;;;17.15;11.22;;;;;;;18.78;63.99;100276.76;2033680;86;21101;-84
2022/10/08 12:42:39;;;;;;;17.77;12.35;;;;;;;18.71;64.21;100281.83;2032195;86;21068;-83
2022/10/08 12:46:16;;;;;;;16.30;12.13;;;;;;;18.59;64.34;100286.55;2016968;86;21023;-82
2022/10/08 12:49:41;;;;;;;19.32;12.07;;;;;;;18.53;64.57;100284.72;2031668;86;21528;-82
2022/10/08 12:52:42;;;;;;;24.30;13.30;;;;;;;18.42;64.64;100288.09;2035751;85;21070;-83
2022/10/08 12:55:54;;;;;;;19.00;12.65;;;;;;;18.31;64.94;100288.23;2021936;86;21061;-83
2022/10/08 12:59:00;;;;;;;18.48;12.82;;;;;;;18.28;65.07;100291.34;2033644;86;21489;-81
2022/10/08 13:02:01;;;;;;;16.12;12.35;;;;;;;18.27;65.24;100288.37;2035807;86;21073;-80
2022/10/08 13:05:05;;;;;;;19.12;12.98;;;;;;;18.25;65.51;100285.59;2030772;86;21006;-82
2022/10/08 13:08:37;;;;;;;18.77;13.18;;;;;;;18.25;65.46;100288.27;2028416;86;21049;-81
2022/10/08 13:11:38;;;;;;;19.62;12.35;;;;;;;18.21;65.63;100289.19;2029477;86;21022;-81
2022/10/08 13:14:40;;;;;;;21.10;12.53;;;;;;;18.20;65.89;100270.63;2032813;86;21499;-83
2022/10/08 13:17:41;;;;;;;16.05;12.03;;;;;;;18.15;65.83;100276.62;2028255;86;21007;-82
2022/10/08 13:21:02;;;;;;;16.80;11.10;;;;;;;18.10;65.77;100286.67;2042254;86;21493;-80
2022/10/08 13:24:15;;;;;;;19.07;10.78;;;;;;;18.04;66.04;100289.36;2037392;85;21548;-77
2022/10/08 13:27:30;;;;;;;15.08;10.48;;;;;;;18.05;66.48;100289.16;2044405;85;21030;-80
2022/10/08 13:30:31;;;;;;;14.47;11.70;;;;;;;17.98;66.49;100299.61;2049289;85;21005;-80
2022/10/08 13:33:34;;;;;;;16.10;12.37;;;;;;;17.95;66.95;100296.00;2049350;85;20988;-83
2022/10/08 13:36:35;;;;;;;20.27;12.53;;;;;;;17.86;67.25;100295.41;2050452;85;20981;-85
2022/10/08 13:39:57;;;;;;;17.98;12.10;;;;;;;17.83;67.33;100302.55;2046877;85;21096;-83
2022/10/08 13:42:58;;;;;;;17.90;12.58;;;;;;;17.74;67.42;100300.57;2047230;85;21077;-82
2022/10/08 13:46:00;;;;;;;19.45;12.40;;;;;;;17.64;67.45;100290.77;2047619;85;21051;-83
2022/10/08 13:49:01;;;;;;;19.55;13.65;;;;;;;17.58;67.82;100292.95;2050278;85;21061;-81
2022/10/08 13:52:03;;;;;;;19.57;12.65;;;;;;;17.56;67.95;100295.83;2047765;85;22086;-81
2022/10/08 13:55:09;;;;;;;17.15;12.75;;;;;;;17.53;67.99;100301.61;2049077;85;21013;-83
2022/10/08 13:58:14;;;;;;;19.82;12.68;;;;;;;17.50;68.09;100305.23;2047874;85;21647;-82
2022/10/08 14:01:15;;;;;;;19.98;14.28;;;;;;;17.46;68.12;100300.28;2003064;87;21052;-83
2022/10/08 14:04:18;;;;;;;18.40;15.23;;;;;;;17.42;68.29;100301.72;1976027;88;21125;-82
2022/10/08 14:07:32;;;;;;;21.93;15.18;;;;;;;17.40;68.21;100297.59;2014117;87;21005;-84
2022/10/08 14:10:34;;;;;;;19.75;15.25;;;;;;;17.37;68.28;100306.05;2014043;87;21029;-79